Flight Track Log - Related Links

Times and Time Zones

All times are in EDT time to prevent confusion due to time zone crossing. See the SKW4725 flight status page for this flight to view local times or setup timezone preferences in your user account.

Time Position Orientation Groundspeed Altitude Reporting Facility
EDT Latitude Longitude Course Direction KTS MPH feet Rate Location/Type
Mon 12:47:49 PM 35.4500 -97.5817 North 191 220 3,700  Level Fort Center
Mon 12:52:59 PM 35.8558 -97.5147 18° North 302 348 15,400 2,189 Climbing Kansas Center
Mon 12:53:59 PM 35.9442 -97.4797 17° North 321 369 17,200 1,600 Climbing Kansas Center
Mon 12:54:59 PM 36.0350 -97.4444 18° North 327 376 18,600 1,500 Climbing Kansas Center
Mon 12:55:59 PM 36.1275 -97.4069 17° North 332 382 20,200 1,400 Climbing Kansas Center
Mon 12:56:59 PM 36.2139 -97.3739 19° North 344 396 21,400 1,150 Climbing Kansas Center
Mon 12:57:59 PM 36.3108 -97.3336 18° North 355 409 22,500 1,100 Climbing Kansas Center
Mon 12:58:59 PM 36.4119 -97.2936 17° North 366 421 23,600 1,050 Climbing Kansas Center
Mon 12:59:59 PM 36.5172 -97.2533 17° North 379 436 24,600 1,050 Climbing Kansas Center
Mon 01:00:59 PM 36.6225 -97.2131 19° North 384 442 25,700 1,050 Climbing Kansas Center
Mon 01:01:59 PM 36.7278 -97.1675 19° North 390 449 26,700 1,100 Climbing Kansas Center
Mon 01:02:59 PM 36.8458 -97.1172 18° North 390 449 27,900 950 Climbing Kansas Center
Mon 01:03:59 PM 36.9342 -97.0811 21° North 385 443 28,600 700 Climbing Kansas Center
Mon 01:04:59 PM 37.0417 -97.0300 20° North 390 449 29,300 650 Climbing Kansas Center
Mon 01:05:59 PM 37.1492 -96.9814 20° North 395 455 29,900 550 Climbing Kansas Center
Mon 01:06:59 PM 37.2586 -96.9303 19° North 401 461 30,400 500 Climbing Kansas Center
Mon 01:07:59 PM 37.3703 -96.8817 20° North 414 476 30,900 500 Climbing Kansas Center
Mon 01:08:59 PM 37.4817 -96.8300 20° North 414 476 31,400 550 Climbing Kansas Center
Mon 01:09:59 PM 37.6058 -96.7736 20° North 428 493 32,000 550 Climbing Kansas Center
Mon 01:10:59 PM 37.7194 -96.7219 20° North 428 493 32,500 500 Climbing Kansas Center
Mon 01:11:59 PM 37.8311 -96.6700 21° North 428 493 33,000 250 Climbing Kansas Center
Mon 01:12:59 PM 37.9447 -96.6153 20° North 428 493 33,000  Level Kansas Center
Mon 01:13:59 PM 38.0581 -96.5631 20° North 433 498 33,000  Level Kansas Center
Mon 01:14:59 PM 38.1694 -96.5106 20° North 433 498 33,000  Level Kansas Center
Mon 01:15:59 PM 38.2831 -96.4581 19° North 433 498 33,000  Level Kansas Center
Mon 01:16:59 PM 38.3944 -96.4081 20° North 433 498 33,000  Level Kansas Center
Mon 01:17:59 PM 38.5058 -96.3553 21° North 433 498 33,000  Level Kansas Center
Mon 01:18:59 PM 38.6044 -96.3072 19° North 433 498 33,000  Level Kansas Center
Mon 01:19:59 PM 38.7158 -96.2567 20° North 428 493 33,000  Level Kansas Center
Mon 01:20:59 PM 38.8353 -96.2011 22° Northeast 417 480 33,000  Level Kansas Center
Mon 01:21:59 PM 38.9403 -96.1475 18° North 412 474 33,000  Level Kansas Center
Mon 01:22:59 PM 39.0472 -96.1017 20° North 402 463 33,000  Level Kansas Center
Mon 01:23:59 PM 39.1522 -96.0531 21° North 402 463 33,000  Level Kansas Center
Mon 01:24:59 PM 39.2528 -96.0044 20° North 392 451 33,000  Level Kansas Center
Mon 01:25:59 PM 39.3450 -95.9606 21° North 392 451 33,000  Level Kansas Center
Mon 01:26:59 PM 39.4478 -95.9089 21° North 392 451 33,000  Level Kansas Center
Mon 01:29:18 PM 39.6900 -95.7894 22° Northeast 389 448 33,000  Level Minneapolis Center
Mon 01:30:18 PM 39.7908 -95.7364 20° North 389 448 33,000  Level Minneapolis Center
Mon 01:31:19 PM 39.8936 -95.6889 22° Northeast 394 453 33,000  Level Minneapolis Center
Mon 01:32:18 PM 39.9967 -95.6356 20° North 394 453 33,000  Level Minneapolis Center
Mon 01:33:19 PM 40.1036 -95.5853 21° North 394 453 33,000  Level Minneapolis Center
Mon 01:34:18 PM 40.2086 -95.5317 22° Northeast 394 453 33,000  Level Minneapolis Center
Mon 01:35:19 PM 40.3158 -95.4756 18° North 394 453 33,000  Level Minneapolis Center
Mon 01:36:18 PM 40.4228 -95.4300 21° North 394 453 33,000  Level Minneapolis Center
Mon 01:37:18 PM 40.5297 -95.3761 21° North 401 461 33,000  Level Minneapolis Center
Mon 01:38:18 PM 40.6389 -95.3194 21° North 407 468 33,000  Level Minneapolis Center
Mon 01:39:18 PM 40.7458 -95.2653 22° Northeast 413 475 33,000  Level Minneapolis Center
Mon 01:40:18 PM 40.8528 -95.2081 21° North 413 475 33,000  Level Minneapolis Center
Mon 01:41:19 PM 40.9619 -95.1536 21° North 413 475 33,000  Level Minneapolis Center
Mon 01:42:19 PM 41.0708 -95.0989 21° North 413 475 33,000  Level Minneapolis Center
Mon 01:43:19 PM 41.1800 -95.0439 21° North 413 475 33,000  Level Minneapolis Center
Mon 01:44:18 PM 41.2889 -94.9889 21° North 413 475 33,000  Level Minneapolis Center
Mon 01:45:18 PM 41.4000 -94.9308 21° North 413 475 33,000  Level Minneapolis Center
Mon 01:46:19 PM 41.5089 -94.8753 26° Northeast 413 475 33,000  Level Minneapolis Center
Mon 01:47:18 PM 41.6097 -94.8083 27° Northeast 413 475 33,000  Level Minneapolis Center
Mon 01:48:19 PM 41.7125 -94.7383 30° Northeast 413 475 33,000  Level Minneapolis Center
Mon 01:49:18 PM 41.8156 -94.6600 28° Northeast 413 475 33,000  Level Minneapolis Center
Mon 01:50:18 PM 41.9203 -94.5867 29° Northeast 413 475 33,000  Level Minneapolis Center
Mon 01:51:18 PM 42.0231 -94.5106 29° Northeast 413 475 33,000  Level Minneapolis Center
Mon 01:52:18 PM 42.1258 -94.4342 28° Northeast 413 475 33,000  Level Minneapolis Center
Mon 01:53:18 PM 42.2306 -94.3575 30° Northeast 413 475 33,000  Level Minneapolis Center
Mon 01:54:18 PM 42.3311 -94.2803 30° Northeast 413 475 33,000  Level Minneapolis Center
Mon 01:55:18 PM 42.4294 -94.2031 28° Northeast 413 475 33,000  Level Minneapolis Center
Mon 01:56:18 PM 42.5319 -94.1283 30° Northeast 408 470 33,000  Level Minneapolis Center
Mon 01:57:18 PM 42.6364 -94.0478 28° Northeast 415 478 33,000  Level Minneapolis Center
Mon 01:58:18 PM 42.7431 -93.9697 30° Northeast 420 483 33,000  Level Minneapolis Center
Mon 01:59:18 PM 42.8433 -93.8914 29° Northeast 420 483 33,000  Level Minneapolis Center
Mon 02:00:18 PM 42.9372 -93.8214 30° Northeast 419 482 33,000  Level Minneapolis Center
Mon 02:01:18 PM 43.0417 -93.7397 29° Northeast 419 482 33,000  Level Minneapolis Center
Mon 02:02:18 PM 43.1439 -93.6636 29° Northeast 419 482 33,000  Level Minneapolis Center
Mon 02:03:18 PM 43.2481 -93.5842 12° North 419 482 33,000  Level Minneapolis Center
Mon 02:04:18 PM 43.3647 -93.5503 North 414 476 33,000 -300 Level Minneapolis Center
Mon 02:05:18 PM 43.4794 -93.5389 North 413 475 32,400 -2,300 Descending Minneapolis Center
Mon 02:06:18 PM 43.6169 -93.5219 North 426 490 28,400 -3,900 Descending Minneapolis Center
Mon 02:07:18 PM 43.7397 -93.5108 North 436 502 24,600 -3,650 Descending Minneapolis Center
Mon 02:08:18 PM 43.8542 -93.4994 North 431 496 21,100 -3,500 Descending Minneapolis Center
Mon 02:09:06 PM 43.9411 -93.4903 North 396 456 18,300 -3,136 Descending FAA TRACON
Mon 02:09:46 PM 44.0061 -93.4822 North 381 438 16,500 -2,850 Descending FAA TRACON
Mon 02:10:26 PM 44.0758 -93.4736 North 359 413 14,500 -2,734 Descending FAA TRACON
Mon 02:11:05 PM 44.1350 -93.4697 North 345 397 12,900 -2,325 Descending FAA TRACON
Mon 02:11:46 PM 44.2008 -93.4628 18° North 342 394 11,400 -1,407 Descending FAA TRACON
Mon 02:12:26 PM 44.2653 -93.4342 25° Northeast 357 411 11,000 -300 Descending FAA TRACON
Mon 02:13:06 PM 44.3278 -93.3925 27° Northeast 359 413 11,000 -375 Level FAA TRACON
Mon 02:13:46 PM 44.3822 -93.3542 27° Northeast 355 409 10,500 -975 Descending FAA TRACON
Mon 02:14:26 PM 44.4361 -93.3161 43° Northeast 309 356 9,700 -1,200 Descending FAA TRACON
Mon 02:15:06 PM 44.4764 -93.2639 45° Northeast 281 323 8,900 -1,050 Descending FAA TRACON
Mon 02:15:46 PM 44.5086 -93.2192 44° Northeast 288 331 8,300 -675 Descending FAA TRACON
Mon 02:16:26 PM 44.5431 -93.1722 43° Northeast 248 285 8,000 -225 Descending FAA TRACON
Mon 02:17:06 PM 44.5769 -93.1283 43° Northeast 238 274 8,000  Level FAA TRACON
Mon 02:17:46 PM 44.6072 -93.0886 74° East 239 275 8,000  Level FAA TRACON
Mon 02:18:26 PM 44.6186 -93.0336 90° East 224 258 8,000 -300 Level FAA TRACON
Mon 02:19:06 PM 44.6186 -92.9767 71° East 207 238 7,600 -900 Descending FAA TRACON
Mon 02:19:46 PM 44.6292 -92.9336 357° North 213 245 6,800 -1,275 Descending FAA TRACON
Mon 02:20:26 PM 44.6631 -92.9364 330° Northwest 182 209 5,900 -1,063 Descending FAA TRACON
Mon 02:21:05 PM 44.6931 -92.9611 328° Northwest 183 211 5,400 -1,050 Descending FAA TRACON
Mon 02:21:46 PM 44.7197 -92.9842 328° Northwest 184 212 4,500 -1,333 Descending FAA TRACON
Mon 02:22:26 PM 44.7508 -93.0111 328° Northwest 189 217 3,600 -1,275 Descending FAA TRACON
Mon 02:23:06 PM 44.7814 -93.0375 329° Northwest 188 216 2,800 -525 Descending FAA TRACON
Mon 02:23:46 PM 44.8097 -93.0619 308° West 195 224 2,900 -300 Climbing FAA TRACON
Mon 02:24:26 PM 44.8297 -93.0981 300° West 164 189 2,400 -675 Descending FAA TRACON
Mon 02:25:06 PM 44.8431 -93.1300 301° West 137 158 2,000 -675 Descending FAA TRACON
Mon 02:25:46 PM 44.8556 -93.1592 301° West 140 161 1,500 -750 Descending FAA TRACON
Mon 02:26:26 PM 44.8694 -93.1917 300° West 139 160 1,000 -750 Descending FAA TRACON
Mon 02:33:32 PM 45.2059 -94.0125 300° West  Level Estimated

Login

Don't have an account? Register now (free) for customized features, flight alerts, and more!